sensor_id;sensor_type;location;lat;lon;timestamp;P1;durP1;ratioP1;P2;durP2;ratioP2
18947;SDS011;9607;51.600;7.558;2023-12-29T00:00:48;5.43;;;1.30;;
18947;SDS011;9607;51.600;7.558;2023-12-29T00:03:14;3.72;;;1.40;;
18947;SDS011;9607;51.600;7.558;2023-12-29T00:05:41;3.40;;;1.30;;
18947;SDS011;9607;51.600;7.558;2023-12-29T00:08:08;2.55;;;1.33;;
18947;SDS011;9607;51.600;7.558;2023-12-29T00:10:35;5.70;;;1.10;;
18947;SDS011;9607;51.600;7.558;2023-12-29T00:13:02;7.30;;;1.73;;
18947;SDS011;9607;51.600;7.558;2023-12-29T00:15:30;2.08;;;1.15;;
18947;SDS011;9607;51.600;7.558;2023-12-29T00:17:57;5.18;;;1.20;;
18947;SDS011;9607;51.600;7.558;2023-12-29T00:20:24;11.20;;;1.55;;
18947;SDS011;9607;51.600;7.558;2023-12-29T00:22:51;6.97;;;1.52;;
18947;SDS011;9607;51.600;7.558;2023-12-29T00:25:19;6.50;;;1.67;;
18947;SDS011;9607;51.600;7.558;2023-12-29T00:27:45;7.40;;;1.40;;
18947;SDS011;9607;51.600;7.558;2023-12-29T00:30:13;3.80;;;1.00;;
18947;SDS011;9607;51.600;7.558;2023-12-29T00:32:41;7.15;;;1.15;;
18947;SDS011;9607;51.600;7.558;2023-12-29T00:35:08;7.25;;;1.30;;
18947;SDS011;9607;51.600;7.558;2023-12-29T00:37:35;6.03;;;1.40;;
18947;SDS011;9607;51.600;7.558;2023-12-29T00:40:02;4.93;;;1.35;;
18947;SDS011;9607;51.600;7.558;2023-12-29T00:42:30;7.45;;;1.08;;
18947;SDS011;9607;51.600;7.558;2023-12-29T00:44:57;5.22;;;1.60;;
18947;SDS011;9607;51.600;7.558;2023-12-29T00:47:23;5.13;;;1.20;;
18947;SDS011;9607;51.600;7.558;2023-12-29T00:49:52;5.40;;;1.45;;
18947;SDS011;9607;51.600;7.558;2023-12-29T00:52:18;3.72;;;1.00;;
18947;SDS011;9607;51.600;7.558;2023-12-29T00:54:45;3.80;;;1.10;;
18947;SDS011;9607;51.600;7.558;2023-12-29T00:57:12;3.13;;;1.13;;
18947;SDS011;9607;51.600;7.558;2023-12-29T00:59:39;4.57;;;1.20;;
18947;SDS011;9607;51.600;7.558;2023-12-29T01:02:09;6.68;;;1.50;;
18947;SDS011;9607;51.600;7.558;2023-12-29T01:04:36;3.88;;;1.17;;
18947;SDS011;9607;51.600;7.558;2023-12-29T01:07:05;4.90;;;1.38;;
18947;SDS011;9607;51.600;7.558;2023-12-29T01:09:32;6.43;;;1.30;;
18947;SDS011;9607;51.600;7.558;2023-12-29T01:12:05;5.45;;;1.70;;
18947;SDS011;9607;51.600;7.558;2023-12-29T01:14:32;3.80;;;1.02;;
18947;SDS011;9607;51.600;7.558;2023-12-29T01:16:59;3.85;;;1.30;;
18947;SDS011;9607;51.600;7.558;2023-12-29T01:19:26;7.50;;;2.15;;
18947;SDS011;9607;51.600;7.558;2023-12-29T01:21:52;3.80;;;1.30;;
18947;SDS011;9607;51.600;7.558;2023-12-29T01:24:21;5.10;;;1.48;;
18947;SDS011;9607;51.600;7.558;2023-12-29T01:26:47;5.03;;;1.35;;
18947;SDS011;9607;51.600;7.558;2023-12-29T01:29:14;6.30;;;1.17;;
18947;SDS011;9607;51.600;7.558;2023-12-29T01:31:41;5.53;;;0.85;;
18947;SDS011;9607;51.600;7.558;2023-12-29T01:34:08;3.53;;;1.17;;
18947;SDS011;9607;51.600;7.558;2023-12-29T01:36:34;5.05;;;1.45;;
18947;SDS011;9607;51.600;7.558;2023-12-29T01:39:01;3.22;;;0.90;;
18947;SDS011;9607;51.600;7.558;2023-12-29T01:41:30;5.50;;;1.15;;
18947;SDS011;9607;51.600;7.558;2023-12-29T01:44:17;7.13;;;1.45;;
18947;SDS011;9607;51.600;7.558;2023-12-29T01:46:47;5.20;;;1.02;;
18947;SDS011;9607;51.600;7.558;2023-12-29T01:49:16;4.97;;;1.60;;
18947;SDS011;9607;51.600;7.558;2023-12-29T01:51:45;5.57;;;1.05;;
18947;SDS011;9607;51.600;7.558;2023-12-29T01:54:16;7.85;;;1.35;;
18947;SDS011;9607;51.600;7.558;2023-12-29T01:56:48;6.25;;;1.52;;
18947;SDS011;9607;51.600;7.558;2023-12-29T01:59:16;4.70;;;1.10;;
18947;SDS011;9607;51.600;7.558;2023-12-29T02:01:43;2.58;;;1.10;;
18947;SDS011;9607;51.600;7.558;2023-12-29T02:04:12;5.35;;;1.27;;
18947;SDS011;9607;51.600;7.558;2023-12-29T02:06:40;7.70;;;1.75;;
18947;SDS011;9607;51.600;7.558;2023-12-29T02:09:07;8.07;;;1.65;;
18947;SDS011;9607;51.600;7.558;2023-12-29T02:11:34;7.70;;;1.48;;
18947;SDS011;9607;51.600;7.558;2023-12-29T02:14:03;5.65;;;1.20;;
18947;SDS011;9607;51.600;7.558;2023-12-29T02:16:31;5.10;;;1.42;;
18947;SDS011;9607;51.600;7.558;2023-12-29T02:19:04;4.45;;;1.33;;
18947;SDS011;9607;51.600;7.558;2023-12-29T02:21:40;5.75;;;1.38;;
18947;SDS011;9607;51.600;7.558;2023-12-29T02:24:07;11.23;;;1.70;;
18947;SDS011;9607;51.600;7.558;2023-12-29T02:26:35;4.57;;;1.67;;
18947;SDS011;9607;51.600;7.558;2023-12-29T02:29:03;5.07;;;1.42;;
18947;SDS011;9607;51.600;7.558;2023-12-29T02:31:34;4.38;;;1.40;;
18947;SDS011;9607;51.600;7.558;2023-12-29T02:34:06;6.03;;;1.33;;
18947;SDS011;9607;51.600;7.558;2023-12-29T02:36:35;5.88;;;1.50;;
18947;SDS011;9607;51.600;7.558;2023-12-29T02:39:07;8.35;;;1.90;;
18947;SDS011;9607;51.600;7.558;2023-12-29T02:41:37;9.00;;;1.85;;
18947;SDS011;9607;51.600;7.558;2023-12-29T02:44:03;5.50;;;1.67;;
18947;SDS011;9607;51.600;7.558;2023-12-29T02:46:30;5.63;;;1.50;;
18947;SDS011;9607;51.600;7.558;2023-12-29T02:48:57;9.20;;;2.42;;
18947;SDS011;9607;51.600;7.558;2023-12-29T02:51:24;6.82;;;2.10;;
18947;SDS011;9607;51.600;7.558;2023-12-29T02:53:51;6.85;;;2.17;;
18947;SDS011;9607;51.600;7.558;2023-12-29T02:56:18;9.07;;;1.80;;
18947;SDS011;9607;51.600;7.558;2023-12-29T02:58:46;16.30;;;2.60;;
18947;SDS011;9607;51.600;7.558;2023-12-29T03:01:14;12.98;;;2.08;;
18947;SDS011;9607;51.600;7.558;2023-12-29T03:03:40;13.40;;;2.60;;
18947;SDS011;9607;51.600;7.558;2023-12-29T03:06:08;14.38;;;2.35;;
18947;SDS011;9607;51.600;7.558;2023-12-29T03:08:35;6.15;;;2.17;;
18947;SDS011;9607;51.600;7.558;2023-12-29T03:11:02;11.15;;;2.25;;
18947;SDS011;9607;51.600;7.558;2023-12-29T03:13:29;10.32;;;2.25;;
18947;SDS011;9607;51.600;7.558;2023-12-29T03:15:57;11.32;;;2.45;;
18947;SDS011;9607;51.600;7.558;2023-12-29T03:18:24;13.07;;;2.28;;
18947;SDS011;9607;51.600;7.558;2023-12-29T03:20:50;8.02;;;2.03;;
18947;SDS011;9607;51.600;7.558;2023-12-29T03:23:17;9.50;;;2.78;;
18947;SDS011;9607;51.600;7.558;2023-12-29T03:25:47;8.32;;;2.47;;
18947;SDS011;9607;51.600;7.558;2023-12-29T03:28:14;18.05;;;3.30;;
18947;SDS011;9607;51.600;7.558;2023-12-29T03:30:41;11.48;;;2.35;;
18947;SDS011;9607;51.600;7.558;2023-12-29T03:33:09;12.70;;;3.05;;
18947;SDS011;9607;51.600;7.558;2023-12-29T03:35:36;15.30;;;3.60;;
18947;SDS011;9607;51.600;7.558;2023-12-29T03:38:02;10.10;;;2.90;;
18947;SDS011;9607;51.600;7.558;2023-12-29T03:40:29;10.63;;;2.40;;
18947;SDS011;9607;51.600;7.558;2023-12-29T03:42:56;9.95;;;2.40;;
18947;SDS011;9607;51.600;7.558;2023-12-29T03:45:23;8.90;;;2.40;;
18947;SDS011;9607;51.600;7.558;2023-12-29T03:47:50;10.70;;;2.53;;
18947;SDS011;9607;51.600;7.558;2023-12-29T03:50:18;9.95;;;2.30;;
18947;SDS011;9607;51.600;7.558;2023-12-29T03:52:45;10.50;;;2.38;;
18947;SDS011;9607;51.600;7.558;2023-12-29T03:55:12;9.65;;;1.80;;
18947;SDS011;9607;51.600;7.558;2023-12-29T03:57:39;13.43;;;2.20;;
18947;SDS011;9607;51.600;7.558;2023-12-29T04:00:10;10.40;;;2.83;;
18947;SDS011;9607;51.600;7.558;2023-12-29T04:02:38;11.00;;;2.40;;
18947;SDS011;9607;51.600;7.558;2023-12-29T04:05:06;10.75;;;2.40;;
18947;SDS011;9607;51.600;7.558;2023-12-29T04:07:35;8.38;;;1.98;;
18947;SDS011;9607;51.600;7.558;2023-12-29T04:10:03;5.57;;;1.92;;
18947;SDS011;9607;51.600;7.558;2023-12-29T04:12:30;7.00;;;1.80;;
18947;SDS011;9607;51.600;7.558;2023-12-29T04:14:57;5.95;;;1.70;;
18947;SDS011;9607;51.600;7.558;2023-12-29T04:17:23;10.05;;;2.47;;
18947;SDS011;9607;51.600;7.558;2023-12-29T04:19:50;10.25;;;1.95;;
18947;SDS011;9607;51.600;7.558;2023-12-29T04:22:18;6.50;;;1.98;;
18947;SDS011;9607;51.600;7.558;2023-12-29T04:24:46;8.48;;;2.85;;
18947;SDS011;9607;51.600;7.558;2023-12-29T04:27:13;5.45;;;1.70;;
18947;SDS011;9607;51.600;7.558;2023-12-29T04:29:40;12.38;;;1.85;;
18947;SDS011;9607;51.600;7.558;2023-12-29T04:32:07;5.80;;;1.90;;
18947;SDS011;9607;51.600;7.558;2023-12-29T04:34:34;6.60;;;1.55;;
18947;SDS011;9607;51.600;7.558;2023-12-29T04:37:01;5.07;;;1.77;;
18947;SDS011;9607;51.600;7.558;2023-12-29T04:39:28;10.60;;;2.15;;
18947;SDS011;9607;51.600;7.558;2023-12-29T04:41:56;6.93;;;1.58;;
18947;SDS011;9607;51.600;7.558;2023-12-29T04:44:23;6.38;;;2.00;;
18947;SDS011;9607;51.600;7.558;2023-12-29T04:46:49;8.50;;;2.08;;
18947;SDS011;9607;51.600;7.558;2023-12-29T04:49:16;10.35;;;1.77;;
18947;SDS011;9607;51.600;7.558;2023-12-29T04:51:43;11.15;;;2.65;;
18947;SDS011;9607;51.600;7.558;2023-12-29T04:54:10;7.53;;;1.83;;
18947;SDS011;9607;51.600;7.558;2023-12-29T04:56:36;7.15;;;1.95;;
18947;SDS011;9607;51.600;7.558;2023-12-29T04:59:05;7.18;;;1.77;;
18947;SDS011;9607;51.600;7.558;2023-12-29T05:01:31;6.95;;;1.70;;
18947;SDS011;9607;51.600;7.558;2023-12-29T05:03:58;6.38;;;1.65;;
18947;SDS011;9607;51.600;7.558;2023-12-29T05:06:25;9.15;;;2.05;;
18947;SDS011;9607;51.600;7.558;2023-12-29T05:08:52;6.53;;;1.85;;
18947;SDS011;9607;51.600;7.558;2023-12-29T05:11:18;7.38;;;1.98;;
18947;SDS011;9607;51.600;7.558;2023-12-29T05:13:45;6.97;;;1.50;;
18947;SDS011;9607;51.600;7.558;2023-12-29T05:16:14;8.55;;;1.77;;
18947;SDS011;9607;51.600;7.558;2023-12-29T05:18:41;4.50;;;1.42;;
18947;SDS011;9607;51.600;7.558;2023-12-29T05:21:13;5.03;;;1.70;;
18947;SDS011;9607;51.600;7.558;2023-12-29T05:23:40;6.88;;;1.58;;
18947;SDS011;9607;51.600;7.558;2023-12-29T05:26:07;7.28;;;1.73;;
18947;SDS011;9607;51.600;7.558;2023-12-29T05:28:34;10.27;;;1.70;;
18947;SDS011;9607;51.600;7.558;2023-12-29T05:31:01;6.60;;;1.50;;
18947;SDS011;9607;51.600;7.558;2023-12-29T05:33:30;8.07;;;1.67;;
18947;SDS011;9607;51.600;7.558;2023-12-29T05:35:57;7.15;;;2.00;;
18947;SDS011;9607;51.600;7.558;2023-12-29T05:38:24;4.18;;;1.42;;
18947;SDS011;9607;51.600;7.558;2023-12-29T05:40:51;4.03;;;1.50;;
18947;SDS011;9607;51.600;7.558;2023-12-29T05:43:18;8.63;;;1.95;;
18947;SDS011;9607;51.600;7.558;2023-12-29T05:45:45;7.07;;;1.40;;
18947;SDS011;9607;51.600;7.558;2023-12-29T05:48:12;4.50;;;1.60;;
18947;SDS011;9607;51.600;7.558;2023-12-29T05:50:40;6.82;;;1.73;;
18947;SDS011;9607;51.600;7.558;2023-12-29T05:53:07;5.07;;;1.70;;
18947;SDS011;9607;51.600;7.558;2023-12-29T05:55:33;7.75;;;1.70;;
18947;SDS011;9607;51.600;7.558;2023-12-29T05:58:01;10.48;;;1.77;;
18947;SDS011;9607;51.600;7.558;2023-12-29T06:00:28;7.28;;;1.70;;
18947;SDS011;9607;51.600;7.558;2023-12-29T06:02:54;3.85;;;1.40;;
18947;SDS011;9607;51.600;7.558;2023-12-29T06:05:21;8.15;;;1.60;;
18947;SDS011;9607;51.600;7.558;2023-12-29T06:07:49;4.47;;;1.40;;
18947;SDS011;9607;51.600;7.558;2023-12-29T06:10:16;8.75;;;1.60;;
18947;SDS011;9607;51.600;7.558;2023-12-29T06:12:43;9.00;;;1.20;;
18947;SDS011;9607;51.600;7.558;2023-12-29T06:15:12;7.78;;;1.65;;
18947;SDS011;9607;51.600;7.558;2023-12-29T06:17:38;8.80;;;1.77;;
18947;SDS011;9607;51.600;7.558;2023-12-29T06:20:06;8.15;;;1.67;;
18947;SDS011;9607;51.600;7.558;2023-12-29T06:22:34;9.63;;;1.58;;
18947;SDS011;9607;51.600;7.558;2023-12-29T06:25:08;8.18;;;1.70;;
18947;SDS011;9607;51.600;7.558;2023-12-29T06:27:35;10.70;;;1.95;;
18947;SDS011;9607;51.600;7.558;2023-12-29T06:30:02;9.07;;;1.58;;
18947;SDS011;9607;51.600;7.558;2023-12-29T06:32:30;4.55;;;1.35;;
18947;SDS011;9607;51.600;7.558;2023-12-29T06:34:57;7.32;;;1.50;;
18947;SDS011;9607;51.600;7.558;2023-12-29T06:37:24;6.00;;;1.52;;
18947;SDS011;9607;51.600;7.558;2023-12-29T06:39:51;8.10;;;1.50;;
18947;SDS011;9607;51.600;7.558;2023-12-29T06:42:19;9.43;;;1.95;;
18947;SDS011;9607;51.600;7.558;2023-12-29T06:44:46;7.88;;;1.52;;
18947;SDS011;9607;51.600;7.558;2023-12-29T06:47:16;9.43;;;1.52;;
18947;SDS011;9607;51.600;7.558;2023-12-29T06:49:43;9.35;;;1.85;;
18947;SDS011;9607;51.600;7.558;2023-12-29T06:52:10;9.88;;;2.10;;
18947;SDS011;9607;51.600;7.558;2023-12-29T06:54:36;7.30;;;1.70;;
18947;SDS011;9607;51.600;7.558;2023-12-29T06:57:03;10.25;;;1.73;;
18947;SDS011;9607;51.600;7.558;2023-12-29T06:59:32;6.30;;;1.88;;
18947;SDS011;9607;51.600;7.558;2023-12-29T07:01:58;8.10;;;1.65;;
18947;SDS011;9607;51.600;7.558;2023-12-29T07:04:25;8.13;;;1.70;;
18947;SDS011;9607;51.600;7.558;2023-12-29T07:06:52;11.30;;;2.40;;
18947;SDS011;9607;51.600;7.558;2023-12-29T07:09:19;11.52;;;1.75;;
18947;SDS011;9607;51.600;7.558;2023-12-29T07:11:47;11.23;;;1.38;;
18947;SDS011;9607;51.600;7.558;2023-12-29T07:14:15;3.97;;;1.63;;
18947;SDS011;9607;51.600;7.558;2023-12-29T07:16:43;8.63;;;1.65;;
18947;SDS011;9607;51.600;7.558;2023-12-29T07:19:10;9.15;;;1.63;;
18947;SDS011;9607;51.600;7.558;2023-12-29T07:21:37;9.55;;;1.92;;
18947;SDS011;9607;51.600;7.558;2023-12-29T07:24:04;7.03;;;1.58;;
18947;SDS011;9607;51.600;7.558;2023-12-29T07:26:32;8.20;;;1.35;;
18947;SDS011;9607;51.600;7.558;2023-12-29T07:28:59;6.70;;;1.65;;
18947;SDS011;9607;51.600;7.558;2023-12-29T07:31:25;9.07;;;1.80;;
18947;SDS011;9607;51.600;7.558;2023-12-29T07:33:54;8.25;;;1.75;;
18947;SDS011;9607;51.600;7.558;2023-12-29T07:36:21;11.45;;;1.45;;
18947;SDS011;9607;51.600;7.558;2023-12-29T07:38:48;8.88;;;2.20;;
18947;SDS011;9607;51.600;7.558;2023-12-29T07:41:17;10.57;;;2.03;;
18947;SDS011;9607;51.600;7.558;2023-12-29T07:43:44;13.50;;;2.78;;
18947;SDS011;9607;51.600;7.558;2023-12-29T07:46:11;9.88;;;2.10;;
18947;SDS011;9607;51.600;7.558;2023-12-29T07:48:37;11.40;;;2.15;;
18947;SDS011;9607;51.600;7.558;2023-12-29T07:51:06;9.98;;;1.83;;
18947;SDS011;9607;51.600;7.558;2023-12-29T07:53:33;9.30;;;2.20;;
18947;SDS011;9607;51.600;7.558;2023-12-29T07:56:00;8.88;;;2.85;;
18947;SDS011;9607;51.600;7.558;2023-12-29T07:58:27;6.38;;;2.13;;
18947;SDS011;9607;51.600;7.558;2023-12-29T08:00:54;10.57;;;2.28;;
18947;SDS011;9607;51.600;7.558;2023-12-29T08:03:21;7.07;;;1.75;;
18947;SDS011;9607;51.600;7.558;2023-12-29T08:05:47;9.23;;;1.75;;
18947;SDS011;9607;51.600;7.558;2023-12-29T08:08:18;5.32;;;1.60;;
18947;SDS011;9607;51.600;7.558;2023-12-29T08:10:45;4.20;;;1.55;;
18947;SDS011;9607;51.600;7.558;2023-12-29T08:13:12;6.15;;;1.90;;
18947;SDS011;9607;51.600;7.558;2023-12-29T08:15:38;10.90;;;1.75;;
18947;SDS011;9607;51.600;7.558;2023-12-29T08:18:05;7.50;;;1.50;;
18947;SDS011;9607;51.600;7.558;2023-12-29T08:20:32;7.38;;;1.60;;
18947;SDS011;9607;51.600;7.558;2023-12-29T08:22:59;4.40;;;1.33;;
18947;SDS011;9607;51.600;7.558;2023-12-29T08:25:29;6.20;;;1.80;;
18947;SDS011;9607;51.600;7.558;2023-12-29T08:27:56;10.15;;;1.80;;
18947;SDS011;9607;51.600;7.558;2023-12-29T08:30:22;9.93;;;1.67;;
18947;SDS011;9607;51.600;7.558;2023-12-29T08:32:49;4.72;;;1.70;;
18947;SDS011;9607;51.600;7.558;2023-12-29T08:35:16;10.27;;;1.83;;
18947;SDS011;9607;51.600;7.558;2023-12-29T08:37:43;7.65;;;2.10;;
18947;SDS011;9607;51.600;7.558;2023-12-29T08:40:10;9.50;;;1.77;;
18947;SDS011;9607;51.600;7.558;2023-12-29T08:42:38;7.88;;;1.50;;
18947;SDS011;9607;51.600;7.558;2023-12-29T08:45:05;5.65;;;1.55;;
18947;SDS011;9607;51.600;7.558;2023-12-29T08:47:33;5.63;;;1.05;;
18947;SDS011;9607;51.600;7.558;2023-12-29T08:49:59;8.80;;;1.20;;
18947;SDS011;9607;51.600;7.558;2023-12-29T08:52:27;3.58;;;1.17;;
18947;SDS011;9607;51.600;7.558;2023-12-29T08:54:54;5.28;;;1.70;;
18947;SDS011;9607;51.600;7.558;2023-12-29T08:57:20;5.95;;;1.23;;
18947;SDS011;9607;51.600;7.558;2023-12-29T08:59:48;5.75;;;1.27;;
18947;SDS011;9607;51.600;7.558;2023-12-29T09:02:16;3.38;;;1.35;;
18947;SDS011;9607;51.600;7.558;2023-12-29T09:04:42;9.27;;;1.50;;
18947;SDS011;9607;51.600;7.558;2023-12-29T09:07:09;8.63;;;1.77;;
18947;SDS011;9607;51.600;7.558;2023-12-29T09:09:36;5.63;;;1.23;;
18947;SDS011;9607;51.600;7.558;2023-12-29T09:12:03;10.70;;;1.65;;
18947;SDS011;9607;51.600;7.558;2023-12-29T09:14:30;5.45;;;1.27;;
18947;SDS011;9607;51.600;7.558;2023-12-29T09:17:00;3.47;;;1.02;;
18947;SDS011;9607;51.600;7.558;2023-12-29T09:19:28;6.53;;;0.90;;
18947;SDS011;9607;51.600;7.558;2023-12-29T09:21:54;5.03;;;1.00;;
18947;SDS011;9607;51.600;7.558;2023-12-29T09:24:21;4.80;;;0.75;;
18947;SDS011;9607;51.600;7.558;2023-12-29T09:26:48;4.80;;;1.10;;
18947;SDS011;9607;51.600;7.558;2023-12-29T09:29:16;3.70;;;0.70;;
18947;SDS011;9607;51.600;7.558;2023-12-29T09:31:42;3.03;;;1.15;;
18947;SDS011;9607;51.600;7.558;2023-12-29T09:34:11;2.83;;;0.70;;
18947;SDS011;9607;51.600;7.558;2023-12-29T09:36:37;3.03;;;0.70;;
18947;SDS011;9607;51.600;7.558;2023-12-29T09:39:04;4.13;;;0.73;;
18947;SDS011;9607;51.600;7.558;2023-12-29T09:41:31;3.78;;;1.00;;
18947;SDS011;9607;51.600;7.558;2023-12-29T09:44:00;1.35;;;0.70;;
18947;SDS011;9607;51.600;7.558;2023-12-29T09:46:29;3.00;;;0.50;;
18947;SDS011;9607;51.600;7.558;2023-12-29T09:48:58;2.03;;;0.80;;
18947;SDS011;9607;51.600;7.558;2023-12-29T09:51:30;4.75;;;0.70;;
18947;SDS011;9607;51.600;7.558;2023-12-29T09:53:57;0.52;;;0.38;;
18947;SDS011;9607;51.600;7.558;2023-12-29T09:56:25;2.22;;;0.80;;
18947;SDS011;9607;51.600;7.558;2023-12-29T09:58:52;1.58;;;0.52;;
18947;SDS011;9607;51.600;7.558;2023-12-29T10:01:20;3.00;;;0.80;;
18947;SDS011;9607;51.600;7.558;2023-12-29T10:03:48;2.83;;;0.45;;
18947;SDS011;9607;51.600;7.558;2023-12-29T10:06:16;0.63;;;0.40;;
18947;SDS011;9607;51.600;7.558;2023-12-29T10:08:47;5.68;;;0.63;;
18947;SDS011;9607;51.600;7.558;2023-12-29T10:11:16;0.77;;;0.60;;
18947;SDS011;9607;51.600;7.558;2023-12-29T10:13:46;1.40;;;0.30;;
18947;SDS011;9607;51.600;7.558;2023-12-29T10:16:18;2.28;;;0.50;;
18947;SDS011;9607;51.600;7.558;2023-12-29T10:18:55;1.65;;;0.30;;
18947;SDS011;9607;51.600;7.558;2023-12-29T10:21:29;2.30;;;0.40;;
18947;SDS011;9607;51.600;7.558;2023-12-29T10:24:03;1.02;;;0.30;;
18947;SDS011;9607;51.600;7.558;2023-12-29T10:26:35;1.65;;;0.70;;
18947;SDS011;9607;51.600;7.558;2023-12-29T10:29:02;2.35;;;0.55;;
18947;SDS011;9607;51.600;7.558;2023-12-29T10:31:29;1.55;;;0.50;;
18947;SDS011;9607;51.600;7.558;2023-12-29T10:36:46;0.90;;;0.60;;
18947;SDS011;9607;51.600;7.558;2023-12-29T10:39:15;1.65;;;0.47;;
18947;SDS011;9607;51.600;7.558;2023-12-29T10:41:42;0.73;;;0.40;;
18947;SDS011;9607;51.600;7.558;2023-12-29T10:44:08;0.40;;;0.40;;
18947;SDS011;9607;51.600;7.558;2023-12-29T10:46:35;2.78;;;0.47;;
18947;SDS011;9607;51.600;7.558;2023-12-29T10:49:06;3.50;;;0.40;;
18947;SDS011;9607;51.600;7.558;2023-12-29T10:51:34;2.00;;;0.40;;
18947;SDS011;9607;51.600;7.558;2023-12-29T10:54:02;0.50;;;0.40;;
18947;SDS011;9607;51.600;7.558;2023-12-29T10:56:30;0.98;;;0.50;;
18947;SDS011;9607;51.600;7.558;2023-12-29T10:58:58;3.13;;;0.65;;
18947;SDS011;9607;51.600;7.558;2023-12-29T11:01:27;0.32;;;0.20;;
18947;SDS011;9607;51.600;7.558;2023-12-29T11:03:57;0.52;;;0.30;;
18947;SDS011;9607;51.600;7.558;2023-12-29T11:06:26;0.68;;;0.30;;
18947;SDS011;9607;51.600;7.558;2023-12-29T11:08:53;1.10;;;0.30;;
18947;SDS011;9607;51.600;7.558;2023-12-29T11:11:20;0.60;;;0.40;;
18947;SDS011;9607;51.600;7.558;2023-12-29T11:13:49;0.57;;;0.50;;
18947;SDS011;9607;51.600;7.558;2023-12-29T11:16:16;1.55;;;0.38;;
18947;SDS011;9607;51.600;7.558;2023-12-29T11:18:46;1.02;;;0.50;;
18947;SDS011;9607;51.600;7.558;2023-12-29T11:21:15;1.60;;;0.50;;
18947;SDS011;9607;51.600;7.558;2023-12-29T11:23:42;0.63;;;0.40;;
18947;SDS011;9607;51.600;7.558;2023-12-29T11:26:09;4.18;;;1.02;;
18947;SDS011;9607;51.600;7.558;2023-12-29T11:28:37;2.03;;;0.55;;
18947;SDS011;9607;51.600;7.558;2023-12-29T11:31:05;0.52;;;0.40;;
18947;SDS011;9607;51.600;7.558;2023-12-29T11:33:34;1.20;;;0.50;;
18947;SDS011;9607;51.600;7.558;2023-12-29T11:36:08;2.42;;;0.60;;
18947;SDS011;9607;51.600;7.558;2023-12-29T11:38:42;1.95;;;0.50;;
18947;SDS011;9607;51.600;7.558;2023-12-29T11:41:17;2.20;;;0.43;;
18947;SDS011;9607;51.600;7.558;2023-12-29T11:43:58;1.48;;;0.70;;
18947;SDS011;9607;51.600;7.558;2023-12-29T11:46:33;1.85;;;0.50;;
18947;SDS011;9607;51.600;7.558;2023-12-29T11:49:01;0.73;;;0.45;;
18947;SDS011;9607;51.600;7.558;2023-12-29T11:51:33;2.40;;;0.57;;
18947;SDS011;9607;51.600;7.558;2023-12-29T11:54:02;2.28;;;0.68;;
18947;SDS011;9607;51.600;7.558;2023-12-29T11:56:36;3.28;;;0.75;;
18947;SDS011;9607;51.600;7.558;2023-12-29T11:59:11;0.75;;;0.38;;
18947;SDS011;9607;51.600;7.558;2023-12-29T12:01:43;5.05;;;0.93;;
18947;SDS011;9607;51.600;7.558;2023-12-29T12:07:07;3.67;;;0.90;;
18947;SDS011;9607;51.600;7.558;2023-12-29T12:09:35;2.67;;;0.75;;
18947;SDS011;9607;51.600;7.558;2023-12-29T12:12:02;2.67;;;0.80;;
18947;SDS011;9607;51.600;7.558;2023-12-29T12:14:45;5.80;;;1.30;;
18947;SDS011;9607;51.600;7.558;2023-12-29T12:17:27;4.38;;;0.77;;
18947;SDS011;9607;51.600;7.558;2023-12-29T12:19:56;2.45;;;1.02;;
18947;SDS011;9607;51.600;7.558;2023-12-29T12:22:24;5.75;;;0.93;;
18947;SDS011;9607;51.600;7.558;2023-12-29T12:24:55;5.75;;;1.23;;
18947;SDS011;9607;51.600;7.558;2023-12-29T12:27:23;2.78;;;1.02;;
18947;SDS011;9607;51.600;7.558;2023-12-29T12:29:54;3.17;;;0.93;;
18947;SDS011;9607;51.600;7.558;2023-12-29T12:32:24;1.83;;;1.27;;
18947;SDS011;9607;51.600;7.558;2023-12-29T12:34:53;4.93;;;1.08;;
18947;SDS011;9607;51.600;7.558;2023-12-29T12:37:21;7.05;;;1.10;;
18947;SDS011;9607;51.600;7.558;2023-12-29T12:39:48;2.38;;;0.73;;
18947;SDS011;9607;51.600;7.558;2023-12-29T12:42:15;5.70;;;0.90;;
18947;SDS011;9607;51.600;7.558;2023-12-29T12:44:46;2.08;;;0.73;;
18947;SDS011;9607;51.600;7.558;2023-12-29T12:47:17;2.78;;;0.75;;
18947;SDS011;9607;51.600;7.558;2023-12-29T12:49:49;4.10;;;0.73;;
18947;SDS011;9607;51.600;7.558;2023-12-29T12:52:17;3.75;;;0.75;;
18947;SDS011;9607;51.600;7.558;2023-12-29T12:54:44;4.05;;;0.70;;
18947;SDS011;9607;51.600;7.558;2023-12-29T12:57:11;4.03;;;0.70;;
18947;SDS011;9607;51.600;7.558;2023-12-29T12:59:39;3.67;;;0.82;;
18947;SDS011;9607;51.600;7.558;2023-12-29T13:02:06;5.40;;;0.90;;
18947;SDS011;9607;51.600;7.558;2023-12-29T13:04:34;2.42;;;0.93;;
18947;SDS011;9607;51.600;7.558;2023-12-29T13:07:01;5.47;;;0.80;;
18947;SDS011;9607;51.600;7.558;2023-12-29T13:09:29;1.33;;;0.77;;
18947;SDS011;9607;51.600;7.558;2023-12-29T13:14:45;5.13;;;1.15;;
18947;SDS011;9607;51.600;7.558;2023-12-29T13:17:13;3.38;;;0.93;;
18947;SDS011;9607;51.600;7.558;2023-12-29T13:19:41;2.10;;;0.93;;
18947;SDS011;9607;51.600;7.558;2023-12-29T13:22:09;1.77;;;1.00;;
18947;SDS011;9607;51.600;7.558;2023-12-29T13:24:43;2.80;;;1.20;;
18947;SDS011;9607;51.600;7.558;2023-12-29T13:27:11;5.90;;;1.20;;
18947;SDS011;9607;51.600;7.558;2023-12-29T13:29:39;5.97;;;1.58;;
18947;SDS011;9607;51.600;7.558;2023-12-29T13:32:07;2.03;;;0.90;;
18947;SDS011;9607;51.600;7.558;2023-12-29T13:34:38;3.05;;;0.80;;
18947;SDS011;9607;51.600;7.558;2023-12-29T13:37:10;5.72;;;0.90;;
18947;SDS011;9607;51.600;7.558;2023-12-29T13:39:46;1.73;;;0.60;;
18947;SDS011;9607;51.600;7.558;2023-12-29T13:42:19;1.15;;;0.60;;
18947;SDS011;9607;51.600;7.558;2023-12-29T13:44:48;2.03;;;0.70;;
18947;SDS011;9607;51.600;7.558;2023-12-29T13:47:20;0.70;;;0.60;;
18947;SDS011;9607;51.600;7.558;2023-12-29T13:49:47;0.75;;;0.57;;
18947;SDS011;9607;51.600;7.558;2023-12-29T13:52:14;1.75;;;0.60;;
18947;SDS011;9607;51.600;7.558;2023-12-29T13:54:43;2.83;;;0.80;;
18947;SDS011;9607;51.600;7.558;2023-12-29T13:57:11;2.40;;;0.75;;
18947;SDS011;9607;51.600;7.558;2023-12-29T13:59:38;1.15;;;0.60;;
18947;SDS011;9607;51.600;7.558;2023-12-29T14:02:18;1.23;;;0.60;;
18947;SDS011;9607;51.600;7.558;2023-12-29T14:04:51;2.15;;;0.90;;
18947;SDS011;9607;51.600;7.558;2023-12-29T14:07:36;3.15;;;1.17;;
18947;SDS011;9607;51.600;7.558;2023-12-29T14:10:03;1.85;;;1.27;;
18947;SDS011;9607;51.600;7.558;2023-12-29T14:12:32;5.28;;;2.00;;
18947;SDS011;9607;51.600;7.558;2023-12-29T14:15:02;3.10;;;1.90;;
18947;SDS011;9607;51.600;7.558;2023-12-29T14:17:29;3.05;;;2.08;;
18947;SDS011;9607;51.600;7.558;2023-12-29T14:19:58;3.92;;;2.25;;
18947;SDS011;9607;51.600;7.558;2023-12-29T14:22:30;5.05;;;2.38;;
18947;SDS011;9607;51.600;7.558;2023-12-29T14:25:00;3.95;;;2.33;;
18947;SDS011;9607;51.600;7.558;2023-12-29T14:27:29;5.35;;;2.30;;
18947;SDS011;9607;51.600;7.558;2023-12-29T14:29:57;6.05;;;2.63;;
18947;SDS011;9607;51.600;7.558;2023-12-29T14:32:24;2.88;;;2.20;;
18947;SDS011;9607;51.600;7.558;2023-12-29T14:34:53;7.15;;;2.67;;
18947;SDS011;9607;51.600;7.558;2023-12-29T14:37:21;5.50;;;2.88;;
18947;SDS011;9607;51.600;7.558;2023-12-29T14:39:48;3.72;;;2.25;;
18947;SDS011;9607;51.600;7.558;2023-12-29T14:42:15;5.32;;;3.03;;
18947;SDS011;9607;51.600;7.558;2023-12-29T14:44:45;4.50;;;2.72;;
18947;SDS011;9607;51.600;7.558;2023-12-29T14:47:13;5.43;;;2.58;;
18947;SDS011;9607;51.600;7.558;2023-12-29T14:49:40;4.90;;;2.60;;
18947;SDS011;9607;51.600;7.558;2023-12-29T14:52:07;4.20;;;2.65;;
18947;SDS011;9607;51.600;7.558;2023-12-29T14:54:34;5.78;;;2.30;;
18947;SDS011;9607;51.600;7.558;2023-12-29T14:57:01;5.13;;;2.35;;
18947;SDS011;9607;51.600;7.558;2023-12-29T14:59:27;3.65;;;2.35;;
18947;SDS011;9607;51.600;7.558;2023-12-29T15:01:55;5.18;;;2.78;;
18947;SDS011;9607;51.600;7.558;2023-12-29T15:04:24;9.25;;;2.88;;
18947;SDS011;9607;51.600;7.558;2023-12-29T15:06:50;5.97;;;2.63;;
18947;SDS011;9607;51.600;7.558;2023-12-29T15:09:20;5.65;;;2.50;;
18947;SDS011;9607;51.600;7.558;2023-12-29T15:11:47;4.80;;;2.60;;
18947;SDS011;9607;51.600;7.558;2023-12-29T15:14:17;7.72;;;3.00;;